Time;durP1;ratioP1;P1;durP2;ratioP2;P2;SDS_P1;SDS_P2;PMS_P1;PMS_P2;Temp;Humidity;BMP_temperature;BMP_pressure;BME280_temperature;BME280_humidity;BME280_pressure;Samples;Min_cycle;Max_cycle;Signal;HPM_P1;HPM_P2
2022/09/25 00:00:18;;;;;;;14.07;8.02;;;;;;;15.22;100.00;99723.09;4970425;28;20065;-63
2022/09/25 00:02:44;;;;;;;13.95;8.32;;;;;;;15.25;100.00;99722.97;4972158;28;20486;-64
2022/09/25 00:05:09;;;;;;;17.20;8.57;;;;;;;15.24;100.00;99726.56;4973792;28;20497;-64
2022/09/25 00:07:34;;;;;;;13.63;8.70;;;;;;;15.22;100.00;99728.47;4973573;28;20035;-64
2022/09/25 00:10:00;;;;;;;15.02;7.90;;;;;;;15.24;100.00;99734.59;4973583;28;20034;-63
2022/09/25 00:12:25;;;;;;;13.25;8.23;;;;;;;15.20;100.00;99725.03;4973237;28;20102;-64
2022/09/25 00:14:51;;;;;;;12.43;7.00;;;;;;;15.22;100.00;99723.09;4972514;28;20038;-64
2022/09/25 00:17:17;;;;;;;13.90;8.25;;;;;;;15.18;100.00;99718.88;4973607;28;20023;-63
2022/09/25 00:19:48;;;;;;;12.13;7.00;;;;;;;15.18;100.00;99724.25;4973807;28;20027;-63
2022/09/25 00:22:14;;;;;;;14.35;7.47;;;;;;;15.18;100.00;99718.88;4973651;28;20022;-64
2022/09/25 00:24:39;;;;;;;13.32;7.88;;;;;;;15.20;100.00;99708.97;4974029;28;20548;-64
2022/09/25 00:27:07;;;;;;;12.30;8.18;;;;;;;15.21;100.00;99705.31;4973313;28;20050;-63
2022/09/25 00:29:33;;;;;;;12.27;7.93;;;;;;;15.19;100.00;99707.22;4973516;28;20535;-63
2022/09/25 00:31:58;;;;;;;14.45;8.98;;;;;;;15.14;100.00;99709.28;4973473;28;20052;-64
2022/09/25 00:34:24;;;;;;;15.23;7.75;;;;;;;15.12;100.00;99708.50;4973368;28;20039;-63
2022/09/25 00:36:50;;;;;;;12.80;8.00;;;;;;;15.08;100.00;99704.28;4973055;28;20025;-64
2022/09/25 00:39:15;;;;;;;14.52;7.68;;;;;;;14.97;100.00;99690.63;4971645;28;20494;-63
2022/09/25 00:41:41;;;;;;;13.60;7.38;;;;;;;14.97;100.00;99695.97;4971886;28;20470;-64
2022/09/25 00:44:44;;;;;;;12.20;8.13;;;;;;;14.91;100.00;99696.28;4971843;28;20034;-64
2022/09/25 00:47:14;;;;;;;11.97;6.73;;;;;;;14.86;100.00;99687.66;4971467;28;20030;-65
2022/09/25 00:49:40;;;;;;;16.27;7.90;;;;;;;14.84;100.00;99689.56;4971862;28;20270;-63
2022/09/25 00:52:09;;;;;;;14.27;8.00;;;;;;;14.84;100.00;99694.94;4974150;28;20027;-64
2022/09/25 00:54:44;;;;;;;11.13;6.97;;;;;;;14.84;100.00;99700.28;4972758;28;20560;-64
2022/09/25 00:57:14;;;;;;;13.02;8.13;;;;;;;14.88;100.00;99695.59;4972929;28;20027;-64
2022/09/25 00:59:45;;;;;;;14.40;8.02;;;;;;;14.91;100.00;99700.81;4973182;28;20034;-63
2022/09/25 01:02:23;;;;;;;13.85;8.25;;;;;;;14.94;100.00;99693.44;4972857;28;20054;-64
2022/09/25 01:04:50;;;;;;;14.40;8.18;;;;;;;15.01;100.00;99693.97;4975252;28;20124;-63
2022/09/25 01:07:16;;;;;;;12.27;7.80;;;;;;;15.04;100.00;99685.78;4972422;28;20165;-63
2022/09/25 01:09:43;;;;;;;14.27;8.10;;;;;;;15.03;100.00;99687.59;4973159;28;20049;-64
2022/09/25 01:12:09;;;;;;;15.20;8.55;;;;;;;15.02;100.00;99683.19;4972881;28;20050;-63
2022/09/25 01:14:35;;;;;;;14.57;7.78;;;;;;;15.03;100.00;99684.91;4971540;28;20049;-63
2022/09/25 01:17:44;;;;;;;11.25;7.55;;;;;;;15.02;100.00;99682.31;4972404;28;20077;-63
2022/09/25 01:20:39;;;;;;;13.55;7.60;;;;;;;15.01;100.00;99692.16;4912968;29;20557;-63
2022/09/25 01:23:35;;;;;;;12.55;7.60;;;;;;;15.03;100.00;99684.91;4972783;28;20030;-64
2022/09/25 01:26:30;;;;;;;12.10;6.80;;;;;;;15.02;100.00;99688.56;4972003;28;20453;-64
2022/09/25 01:29:20;;;;;;;14.10;7.50;;;;;;;15.04;100.00;99683.94;4972768;28;20035;-64
2022/09/25 01:32:07;;;;;;;11.93;6.88;;;;;;;15.08;100.00;99688.19;4971486;28;20042;-64
2022/09/25 01:34:57;;;;;;;16.92;9.25;;;;;;;15.08;100.00;99680.16;4972581;28;20073;-64
2022/09/25 01:37:30;;;;;;;16.02;8.73;;;;;;;15.10;100.00;99688.13;4972156;28;20093;-63
2022/09/25 01:40:16;;;;;;;17.00;9.50;;;;;;;15.13;100.00;99688.81;4972402;28;20058;-64
2022/09/25 01:43:05;;;;;;;16.67;10.30;;;;;;;15.09;100.00;99681.88;4972399;28;20041;-64
2022/09/25 01:45:55;;;;;;;12.65;8.27;;;;;;;15.10;100.00;99686.31;4971772;28;20501;-63
2022/09/25 01:48:25;;;;;;;15.32;9.75;;;;;;;15.03;100.00;99671.53;4972100;28;20130;-64
2022/09/25 01:50:57;;;;;;;15.52;10.30;;;;;;;15.08;100.00;99676.63;4977654;28;20486;-64
2022/09/25 01:53:28;;;;;;;17.35;9.68;;;;;;;15.10;100.00;99675.59;4991670;28;20097;-64
2022/09/25 01:56:01;;;;;;;14.20;8.70;;;;;;;15.09;100.00;99673.00;4991130;28;20363;-63
2022/09/25 01:58:40;;;;;;;16.92;9.18;;;;;;;15.08;100.00;99669.44;4991243;28;20034;-63
2022/09/25 02:01:15;;;;;;;16.92;10.13;;;;;;;15.07;100.00;99675.78;4990866;28;20097;-63
2022/09/25 02:03:50;;;;;;;17.15;9.27;;;;;;;15.08;100.00;99674.81;4983303;28;20097;-64
2022/09/25 02:06:19;;;;;;;18.30;9.45;;;;;;;15.01;100.00;99664.50;4971631;28;20375;-64
2022/09/25 02:09:06;;;;;;;14.90;8.90;;;;;;;15.04;100.00;99670.56;4971678;28;20073;-63
2022/09/25 02:11:38;;;;;;;14.40;8.98;;;;;;;15.03;100.00;99667.97;4952120;29;20048;-63
2022/09/25 02:14:14;;;;;;;15.30;9.27;;;;;;;15.06;100.00;99668.66;4952677;29;20035;-64
2022/09/25 02:16:43;;;;;;;16.20;10.02;;;;;;;15.05;100.00;99675.00;4952030;29;20054;-63
2022/09/25 02:22:22;;;;;;;16.13;9.05;;;;;;;15.00;100.00;99674.38;4970253;28;20374;-64
2022/09/25 02:25:05;;;;;;;14.63;9.32;;;;;;;15.00;100.00;99668.16;4971239;28;20122;-64
2022/09/25 02:27:31;;;;;;;14.60;8.93;;;;;;;14.96;100.00;99678.16;4970935;28;20077;-63
2022/09/25 02:30:00;;;;;;;14.82;8.95;;;;;;;14.94;100.00;99669.34;4970637;28;20546;-63
2022/09/25 02:32:29;;;;;;;15.45;9.18;;;;;;;14.89;100.00;99676.75;4969656;28;20022;-64
2022/09/25 02:34:57;;;;;;;17.00;8.57;;;;;;;14.85;100.00;99675.22;4969589;28;20085;-63
2022/09/25 02:37:22;;;;;;;13.93;8.35;;;;;;;14.79;100.00;99675.56;4969121;28;20118;-63
2022/09/25 02:39:53;;;;;;;15.35;9.20;;;;;;;14.76;100.00;99675.72;4969980;28;20110;-63
2022/09/25 02:42:43;;;;;;;17.88;9.15;;;;;;;14.72;100.00;99668.81;4971181;28;20042;-64
2022/09/25 02:45:21;;;;;;;13.27;8.52;;;;;;;14.69;100.00;99671.66;4970931;28;20026;-63
2022/09/25 02:47:53;;;;;;;14.18;8.60;;;;;;;14.65;100.00;99672.78;4970340;28;20482;-63
2022/09/25 02:50:24;;;;;;;17.38;9.52;;;;;;;14.62;100.00;99672.94;4971312;28;20498;-64
2022/09/25 02:53:05;;;;;;;13.32;8.50;;;;;;;14.62;100.00;99678.28;4970797;28;20030;-63
2022/09/25 02:55:47;;;;;;;14.43;7.90;;;;;;;14.60;100.00;99685.53;4970363;28;20027;-63
2022/09/25 02:58:20;;;;;;;16.75;7.65;;;;;;;14.56;100.00;99673.28;4984603;28;20034;-65
2022/09/25 03:00:50;;;;;;;14.35;7.82;;;;;;;14.53;100.00;99670.75;4990477;28;20029;-64
2022/09/25 03:03:18;;;;;;;14.88;8.23;;;;;;;14.51;100.00;99670.84;4985517;28;20084;-64
2022/09/25 03:05:46;;;;;;;12.55;7.20;;;;;;;14.46;100.00;99664.88;4970247;28;20019;-64
2022/09/25 03:10:58;;;;;;;20.23;7.95;;;;;;;14.41;100.00;99658.06;4970625;28;20061;-64
2022/09/25 03:13:26;;;;;;;23.25;7.47;;;;;;;14.37;100.00;99667.19;4972981;28;20089;-63
2022/09/25 03:15:57;;;;;;;23.27;7.22;;;;;;;14.32;100.00;99674.59;4970444;28;20030;-63
2022/09/25 03:18:24;;;;;;;14.75;7.57;;;;;;;14.30;100.00;99671.13;4970567;28;20054;-63
2022/09/25 03:20:50;;;;;;;14.35;7.18;;;;;;;14.29;100.00;99664.06;4971034;28;20493;-64
2022/09/25 03:23:16;;;;;;;19.70;7.22;;;;;;;14.27;100.00;99663.25;4970391;28;20026;-64
2022/09/25 03:25:41;;;;;;;15.00;7.38;;;;;;;14.25;100.00;99668.69;4970417;28;20022;-64
2022/09/25 03:28:11;;;;;;;16.33;8.25;;;;;;;14.21;100.00;99671.59;4970414;28;20026;-63
2022/09/25 03:30:39;;;;;;;14.32;7.45;;;;;;;14.13;100.00;99657.75;4970670;28;20038;-64
2022/09/25 03:33:09;;;;;;;16.05;8.57;;;;;;;14.13;100.00;99672.00;4970324;28;20035;-64
2022/09/25 03:35:36;;;;;;;17.02;9.02;;;;;;;14.13;100.00;99674.69;4970647;28;20049;-63
2022/09/25 03:38:02;;;;;;;13.15;7.38;;;;;;;14.14;100.00;99672.84;4972829;28;20030;-64
2022/09/25 03:40:27;;;;;;;15.63;8.05;;;;;;;14.13;100.00;99674.69;4974497;28;20037;-64
2022/09/25 03:42:52;;;;;;;11.75;7.75;;;;;;;14.18;100.00;99677.09;4974222;28;20508;-63
2022/09/25 03:45:18;;;;;;;12.10;7.47;;;;;;;14.21;100.00;99679.63;4974191;28;20026;-64
2022/09/25 03:47:44;;;;;;;13.05;8.60;;;;;;;14.24;100.00;99680.31;4974555;28;20394;-64
2022/09/25 03:50:09;;;;;;;15.43;8.77;;;;;;;14.06;100.00;99640.28;4974535;28;20023;-64
2022/09/25 03:52:34;;;;;;;14.70;8.70;;;;;;;14.29;100.00;99670.28;4976537;28;20092;-64
2022/09/25 03:55:15;;;;;;;16.17;9.45;;;;;;;14.33;100.00;99671.81;5086717;27;20381;-63
2022/09/25 03:57:40;;;;;;;18.98;9.27;;;;;;;14.37;100.00;99672.53;5086199;28;20407;-63
2022/09/25 04:00:06;;;;;;;16.48;10.02;;;;;;;14.39;100.00;99666.16;5086736;28;20063;-63
2022/09/25 04:02:31;;;;;;;16.95;10.07;;;;;;;14.42;100.00;99671.34;5086718;28;20479;-63
2022/09/25 04:04:58;;;;;;;23.65;10.77;;;;;;;14.41;100.00;99660.72;5105965;28;20042;-64
2022/09/25 04:07:24;;;;;;;17.42;9.68;;;;;;;14.42;100.00;99670.47;5106880;28;20103;-64
2022/09/25 04:09:49;;;;;;;14.50;8.93;;;;;;;14.40;100.00;99672.34;5093693;28;20120;-63
2022/09/25 04:12:15;;;;;;;15.63;9.75;;;;;;;14.39;100.00;99667.97;5065232;28;20062;-63
2022/09/25 04:14:44;;;;;;;13.57;8.27;;;;;;;14.31;100.00;99662.16;5065273;28;20020;-63
2022/09/25 04:17:10;;;;;;;19.98;8.68;;;;;;;14.35;100.00;99658.34;5065070;28;20032;-63
2022/09/25 04:19:35;;;;;;;17.65;7.82;;;;;;;14.32;100.00;99663.88;5065064;28;20043;-63
2022/09/25 04:22:01;;;;;;;14.38;7.90;;;;;;;14.32;100.00;99677.25;5070041;28;20382;-63
2022/09/25 04:27:10;;;;;;;14.60;7.82;;;;;;;14.26;100.00;99665.09;5085391;28;20382;-62
2022/09/25 04:29:36;;;;;;;16.83;7.88;;;;;;;14.29;100.00;99672.06;5086263;28;20028;-63
2022/09/25 04:34:45;;;;;;;16.77;8.45;;;;;;;14.23;100.00;99664.34;5086291;28;20031;-63
2022/09/25 04:37:12;;;;;;;15.13;8.73;;;;;;;14.25;100.00;99662.47;5086014;28;20028;-63
2022/09/25 04:39:38;;;;;;;18.55;9.25;;;;;;;14.25;100.00;99668.69;5080796;28;20025;-64
2022/09/25 04:42:04;;;;;;;15.68;8.40;;;;;;;14.23;100.00;99669.69;5065641;28;20035;-63
2022/09/25 04:44:29;;;;;;;15.20;8.80;;;;;;;14.25;100.00;99670.50;5064634;28;20120;-63
2022/09/25 04:46:55;;;;;;;17.95;9.38;;;;;;;14.26;100.00;99669.56;5063964;28;20029;-64
2022/09/25 04:49:21;;;;;;;17.08;10.55;;;;;;;14.26;100.00;99669.56;5063591;28;20182;-63
2022/09/25 04:51:46;;;;;;;16.70;10.23;;;;;;;14.24;100.00;99666.06;5076286;28;20020;-63
2022/09/25 04:54:13;;;;;;;17.85;9.63;;;;;;;14.26;100.00;99674.91;5083632;28;20131;-63
2022/09/25 04:56:39;;;;;;;14.65;9.00;;;;;;;14.29;100.00;99674.75;5084571;28;20339;-62
2022/09/25 04:59:04;;;;;;;14.63;9.25;;;;;;;14.30;100.00;99673.78;5084527;28;20462;-64
2022/09/25 05:01:30;;;;;;;15.95;8.82;;;;;;;14.30;100.00;99676.47;5085753;28;20071;-63
2022/09/25 05:03:55;;;;;;;15.55;8.00;;;;;;;14.29;100.00;99680.97;5092061;28;20024;-63
2022/09/25 05:06:21;;;;;;;15.45;8.77;;;;;;;14.30;100.00;99671.13;5068276;28;20028;-63
2022/09/25 05:08:51;;;;;;;14.82;8.40;;;;;;;14.29;100.00;99678.31;5071605;28;20387;-63
2022/09/25 05:11:17;;;;;;;16.23;8.68;;;;;;;14.24;100.00;99672.28;5071882;28;20032;-63
2022/09/25 05:13:45;;;;;;;14.07;8.05;;;;;;;14.31;100.00;99686.25;5072033;28;20032;-63
2022/09/25 05:16:11;;;;;;;15.77;8.32;;;;;;;14.31;100.00;99678.22;5071554;28;20058;-63
2022/09/25 05:18:36;;;;;;;17.27;8.85;;;;;;;14.31;100.00;99672.88;5071992;28;20040;-62
2022/09/25 05:21:03;;;;;;;14.38;8.85;;;;;;;14.38;100.00;99682.31;5071889;28;20531;-64
2022/09/25 05:23:29;;;;;;;14.82;8.75;;;;;;;14.41;100.00;99684.81;5071718;28;20021;-63
2022/09/25 05:25:59;;;;;;;12.57;7.70;;;;;;;14.45;100.00;99681.00;5071339;28;20471;-63
2022/09/25 05:28:25;;;;;;;16.45;8.40;;;;;;;14.50;100.00;99678.94;5071708;28;20028;-63
2022/09/25 05:30:50;;;;;;;15.95;9.80;;;;;;;14.56;100.00;99692.03;5071657;28;20035;-62
2022/09/25 05:33:17;;;;;;;15.35;9.10;;;;;;;14.63;100.00;99681.84;5071666;28;20475;-63
2022/09/25 05:35:43;;;;;;;15.23;8.43;;;;;;;14.61;100.00;99681.06;5070990;28;20024;-63
2022/09/25 05:38:09;;;;;;;21.25;10.07;;;;;;;14.62;100.00;99680.97;5071986;28;20052;-63
2022/09/25 05:40:36;;;;;;;15.90;9.40;;;;;;;14.69;100.00;99685.06;5071568;28;20100;-63
2022/09/25 05:43:01;;;;;;;16.02;9.90;;;;;;;14.69;100.00;99685.06;5071269;28;20031;-64
2022/09/25 05:45:26;;;;;;;16.70;10.43;;;;;;;14.71;100.00;99679.63;5071090;28;20028;-63
2022/09/25 05:48:03;;;;;;;15.77;9.82;;;;;;;14.72;100.00;99690.25;5071355;28;20027;-63
2022/09/25 05:50:31;;;;;;;16.52;9.85;;;;;;;14.73;100.00;99691.94;5070988;28;20032;-63
2022/09/25 05:52:57;;;;;;;15.32;10.38;;;;;;;14.69;100.00;99689.53;5071049;28;20036;-63
2022/09/25 05:55:22;;;;;;;15.48;10.25;;;;;;;14.71;100.00;99688.50;5055014;28;20120;-64
2022/09/25 05:57:48;;;;;;;17.63;10.02;;;;;;;14.71;100.00;99696.53;5051024;28;20555;-63
2022/09/25 06:00:15;;;;;;;15.15;9.95;;;;;;;14.75;100.00;99698.09;5051442;28;20024;-62
2022/09/25 06:02:40;;;;;;;19.80;11.07;;;;;;;14.80;100.00;99698.72;5051470;28;20052;-63
2022/09/25 06:05:07;;;;;;;14.82;9.38;;;;;;;14.86;100.00;99703.72;5053936;28;20484;-63
2022/09/25 06:07:34;;;;;;;15.23;9.10;;;;;;;14.87;100.00;99700.13;5070369;28;20063;-63
2022/09/25 06:09:59;;;;;;;17.92;10.50;;;;;;;14.89;100.00;99703.53;5062938;28;20474;-63
2022/09/25 06:12:24;;;;;;;15.30;8.95;;;;;;;14.96;100.00;99704.09;5049450;28;20124;-63
2022/09/25 06:14:51;;;;;;;20.73;12.45;;;;;;;15.02;100.00;99704.63;5050672;28;20021;-63
2022/09/25 06:17:17;;;;;;;18.40;10.60;;;;;;;15.04;100.00;99707.22;5049449;28;20029;-62
2022/09/25 06:19:42;;;;;;;17.20;11.23;;;;;;;15.06;100.00;99710.66;5050754;28;20036;-63
2022/09/25 06:22:08;;;;;;;18.63;11.52;;;;;;;15.05;100.00;99704.44;5050803;28;20100;-63
2022/09/25 06:24:33;;;;;;;18.67;10.68;;;;;;;15.08;100.00;99701.59;5059142;28;20379;-63
2022/09/25 06:26:58;;;;;;;17.73;9.48;;;;;;;15.11;100.00;99708.59;5068788;28;20035;-63
2022/09/25 06:29:24;;;;;;;16.90;10.52;;;;;;;15.10;100.00;99707.75;5070448;28;20032;-63
2022/09/25 06:31:50;;;;;;;17.52;10.63;;;;;;;15.11;100.00;99711.25;5070476;28;20107;-63
2022/09/25 06:34:16;;;;;;;13.98;8.55;;;;;;;15.15;100.00;99700.31;5070002;28;20115;-63
2022/09/25 06:36:41;;;;;;;14.80;9.38;;;;;;;15.21;100.00;99712.47;5070213;28;20028;-63
2022/09/25 06:39:07;;;;;;;15.68;8.80;;;;;;;15.23;100.00;99715.94;5069723;28;20035;-64
2022/09/25 06:41:33;;;;;;;17.58;9.35;;;;;;;15.16;100.00;99710.06;5050476;28;20021;-63
2022/09/25 06:43:59;;;;;;;15.98;10.05;;;;;;;15.23;100.00;99719.50;5048642;28;20017;-63
2022/09/25 06:46:24;;;;;;;19.65;9.90;;;;;;;15.24;100.00;99714.97;5049946;28;20035;-63
2022/09/25 06:48:54;;;;;;;16.02;9.50;;;;;;;15.23;100.00;99716.81;5049831;28;20105;-63
2022/09/25 06:51:22;;;;;;;17.55;9.48;;;;;;;15.25;100.00;99706.00;5050043;28;20021;-62
2022/09/25 06:53:47;;;;;;;16.50;8.98;;;;;;;15.28;100.00;99701.34;5049710;28;20139;-63
2022/09/25 06:56:13;;;;;;;16.65;9.20;;;;;;;15.35;100.00;99707.22;5049649;28;20116;-64
2022/09/25 06:58:38;;;;;;;22.92;12.40;;;;;;;15.37;100.00;99698.13;5053320;28;20070;-63
2022/09/25 07:01:09;;;;;;;27.98;15.40;;;;;;;15.43;100.00;99710.34;5064688;28;20063;-63
2022/09/25 07:03:43;;;;;;;37.13;20.70;;;;;;;15.49;100.00;99713.56;5064938;28;20077;-63
2022/09/25 07:06:11;;;;;;;19.75;11.82;;;;;;;15.53;100.00;99717.75;5090012;28;20520;-62
2022/09/25 07:08:37;;;;;;;19.38;10.82;;;;;;;15.57;100.00;99715.78;5090141;28;20031;-63
2022/09/25 07:11:04;;;;;;;19.38;11.30;;;;;;;15.61;100.00;99712.84;5056395;28;20569;-63
2022/09/25 07:13:32;;;;;;;18.35;11.20;;;;;;;15.65;100.00;99717.06;5051909;28;20071;-63
2022/09/25 07:16:05;;;;;;;15.40;9.75;;;;;;;15.68;100.00;99711.53;5049050;28;20148;-62
2022/09/25 07:18:31;;;;;;;15.48;8.32;;;;;;;15.71;100.00;99710.50;5049987;28;20090;-62
2022/09/25 07:21:11;;;;;;;12.90;8.20;;;;;;;15.78;100.00;99717.25;5049339;28;20060;-62
2022/09/25 07:23:37;;;;;;;21.00;11.57;;;;;;;15.82;100.00;99713.41;5049716;28;20044;-61
2022/09/25 07:26:21;;;;;;;21.20;11.02;;;;;;;15.86;100.00;99711.41;5049378;28;20031;-62
2022/09/25 07:28:51;;;;;;;23.33;12.82;;;;;;;15.91;100.00;99707.53;5049379;28;20496;-62
2022/09/25 07:31:19;;;;;;;23.75;11.90;;;;;;;15.97;100.00;99707.16;5049330;28;20033;-61
2022/09/25 07:33:45;;;;;;;15.68;8.93;;;;;;;16.04;100.00;99707.66;5049183;28;20029;-62
2022/09/25 07:36:12;;;;;;;18.30;10.77;;;;;;;16.11;100.00;99709.00;5049378;28;20025;-62
2022/09/25 07:38:38;;;;;;;18.73;9.88;;;;;;;16.13;100.00;99717.84;5047487;28;20025;-63
2022/09/25 07:41:05;;;;;;;21.67;10.32;;;;;;;16.11;100.00;99709.84;5064220;28;20028;-61
2022/09/25 07:43:31;;;;;;;17.65;10.57;;;;;;;16.09;100.00;99689.44;5067544;28;20028;-61
2022/09/25 07:45:57;;;;;;;17.50;9.82;;;;;;;16.29;100.00;99711.44;5067296;28;20635;-61
2022/09/25 07:48:23;;;;;;;18.38;9.63;;;;;;;16.42;100.00;99708.88;5067720;28;20020;-61
2022/09/25 07:50:49;;;;;;;18.00;9.88;;;;;;;16.48;100.00;99713.91;5067501;28;20056;-62
2022/09/25 07:53:17;;;;;;;15.25;9.85;;;;;;;16.54;100.00;99714.38;5060987;28;20049;-61
2022/09/25 07:55:43;;;;;;;17.45;10.65;;;;;;;16.61;100.00;99720.25;5048751;28;20037;-63
2022/09/25 07:58:09;;;;;;;18.40;10.38;;;;;;;16.69;100.00;99709.88;5049222;28;20160;-62
2022/09/25 08:00:34;;;;;;;23.48;10.63;;;;;;;16.81;100.00;99711.81;5049374;28;20111;-61
2022/09/25 08:02:59;;;;;;;19.27;10.77;;;;;;;16.90;100.00;99711.25;5054686;28;20107;-62
2022/09/25 08:05:26;;;;;;;20.67;11.02;;;;;;;16.98;100.00;99708.94;5080314;28;20032;-62
2022/09/25 08:07:52;;;;;;;19.80;11.10;;;;;;;16.97;100.00;99713.44;5068906;28;20372;-62
2022/09/25 08:10:17;;;;;;;20.38;10.02;;;;;;;16.94;100.00;99713.63;5058632;28;20062;-61
2022/09/25 08:12:42;;;;;;;22.48;10.70;;;;;;;16.86;100.00;99710.56;5049068;28;20044;-63
2022/09/25 08:15:09;;;;;;;18.25;11.35;;;;;;;16.96;100.00;99716.22;5049369;28;20464;-61
2022/09/25 08:17:34;;;;;;;23.13;12.93;;;;;;;17.04;100.00;99711.22;5048540;28;20035;-62
2022/09/25 08:20:00;;;;;;;22.08;11.35;;;;;;;17.14;100.00;99715.06;5052920;28;20028;-60
2022/09/25 08:22:26;;;;;;;19.30;10.93;;;;;;;17.23;100.00;99721.66;5068934;28;20100;-61
2022/09/25 08:24:52;;;;;;;19.40;10.48;;;;;;;17.23;100.00;99725.22;5068912;28;20527;-61
2022/09/25 08:27:17;;;;;;;18.85;10.50;;;;;;;17.27;100.00;99721.38;5068469;28;20040;-62
2022/09/25 08:29:42;;;;;;;20.13;10.80;;;;;;;17.48;100.00;99724.53;5068683;28;20021;-63
2022/09/25 08:32:08;;;;;;;19.52;11.40;;;;;;;17.65;100.00;99716.22;5069074;28;20021;-61
2022/09/25 08:34:34;;;;;;;19.33;11.18;;;;;;;17.71;100.00;99711.28;5068912;28;20021;-62
2022/09/25 08:36:59;;;;;;;21.23;12.40;;;;;;;17.79;100.00;99726.94;5068402;28;20054;-62
2022/09/25 08:39:25;;;;;;;22.10;11.55;;;;;;;17.87;99.61;99722.78;5063885;28;20029;-61
2022/09/25 08:41:52;;;;;;;24.08;11.88;;;;;;;17.92;99.08;99723.28;5049914;28;20056;-62
2022/09/25 08:44:37;;;;;;;19.83;10.98;;;;;;;17.88;97.42;99727.19;5051026;28;20029;-63
2022/09/25 08:49:57;;;;;;;21.20;11.45;;;;;;;17.88;97.43;99729.88;5061286;28;20035;-62
2022/09/25 08:52:23;;;;;;;18.92;11.57;;;;;;;17.80;97.65;99723.25;5070459;28;20020;-61
2022/09/25 08:54:49;;;;;;;23.88;12.18;;;;;;;17.71;97.30;99724.72;5072070;28;20415;-62
2022/09/25 08:57:42;;;;;;;19.13;10.80;;;;;;;17.68;97.95;99710.63;5071801;28;20709;-62
2022/09/25 09:00:19;;;;;;;21.20;11.60;;;;;;;17.85;97.28;99727.38;5072057;28;20040;-61
2022/09/25 09:02:52;;;;;;;19.65;11.57;;;;;;;17.96;97.40;99722.13;5072974;28;20059;-62
2022/09/25 09:05:27;;;;;;;;;;;;;;;18.13;96.70;99716.50;5077843;28;20032;-62
2022/09/25 09:07:58;;;;;;;19.98;11.50;;;;;;;18.29;95.66;99703.69;5052031;28;19958;-62
2022/09/25 09:10:36;;;;;;;20.98;11.65;;;;;;;18.39;94.43;99712.03;5063063;28;20094;-61
2022/09/25 09:13:29;;;;;;;21.48;12.23;;;;;;;18.41;93.66;99712.78;5071777;28;20032;-61
2022/09/25 09:16:00;;;;;;;23.40;11.30;;;;;;;18.35;91.90;99719.41;5071260;28;20028;-61
2022/09/25 09:18:28;;;;;;;20.48;10.65;;;;;;;18.35;91.74;99716.72;5071732;28;20036;-62
2022/09/25 09:21:06;;;;;;;21.70;11.35;;;;;;;18.28;92.11;99712.75;5071786;28;20559;-61
2022/09/25 09:23:52;;;;;;;20.05;12.10;;;;;;;18.18;92.73;99714.34;5072087;28;20035;-61
2022/09/25 09:26:44;;;;;;;18.83;11.55;;;;;;;18.11;93.25;99715.72;5071200;28;20105;-60
2022/09/25 09:29:28;;;;;;;18.50;11.05;;;;;;;18.02;93.68;99721.72;5071422;28;20147;-61
2022/09/25 09:31:56;;;;;;;;;;;;;;;17.83;93.71;99715.84;5071913;28;20021;-61
2022/09/25 09:34:42;;;;;;;21.02;11.20;;;;;;;17.58;94.69;99721.13;5071501;28;19927;-61
2022/09/25 09:37:16;;;;;;;18.83;11.25;;;;;;;17.49;95.59;99720.88;5071532;28;20479;-61
2022/09/25 09:39:55;;;;;;;21.85;12.18;;;;;;;17.38;96.83;99712.63;5071591;28;20498;-61
2022/09/25 09:42:36;;;;;;;20.20;11.73;;;;;;;17.37;97.89;99711.75;5071286;28;20080;-62
2022/09/25 09:45:23;;;;;;;24.15;12.60;;;;;;;17.38;98.40;99724.22;5071397;28;20107;-62
2022/09/25 09:48:27;;;;;;;23.42;12.30;;;;;;;17.41;98.56;99718.66;5070960;28;20041;-62
2022/09/25 09:51:00;;;;;;;23.08;11.18;;;;;;;17.41;98.79;99707.03;5070401;28;20115;-62
2022/09/25 09:53:35;;;;;;;20.88;11.45;;;;;;;17.47;98.68;99718.28;5071110;28;20495;-61
2022/09/25 09:56:08;;;;;;;22.90;12.70;;;;;;;17.58;98.29;99714.88;5070734;28;20081;-62
2022/09/25 09:58:36;;;;;;;19.73;10.48;;;;;;;17.67;98.27;99715.16;5071182;28;20028;-62
2022/09/25 10:01:02;;;;;;;24.13;12.23;;;;;;;17.81;98.24;99720.47;5070991;28;20047;-62
2022/09/25 10:03:32;;;;;;;21.83;12.30;;;;;;;17.91;97.66;99713.50;5069753;28;20052;-61
2022/09/25 10:06:01;;;;;;;22.75;12.95;;;;;;;18.03;97.02;99712.69;5069479;28;20063;-62
2022/09/25 10:08:28;;;;;;;21.75;12.10;;;;;;;18.14;96.60;99720.91;5069473;28;20024;-61
2022/09/25 10:10:54;;;;;;;19.20;12.13;;;;;;;18.24;94.74;99716.59;5068701;28;20111;-61
2022/09/25 10:13:24;;;;;;;21.75;12.32;;;;;;;18.35;93.59;99707.81;5068955;28;20145;-61
2022/09/25 10:16:11;;;;;;;23.02;11.48;;;;;;;18.48;91.72;99706.03;5068925;28;20056;-62
2022/09/25 10:19:00;;;;;;;23.27;12.73;;;;;;;18.70;91.09;99708.91;5069290;28;20044;-62
2022/09/25 10:22:01;;;;;;;21.25;11.32;;;;;;;18.80;90.03;99706.41;5069025;28;20044;-62
2022/09/25 10:24:51;;;;;;;22.05;11.18;;;;;;;18.89;87.94;99711.19;5062216;28;20115;-61
2022/09/25 10:27:25;;;;;;;22.85;12.60;;;;;;;18.86;86.91;99709.53;5049784;28;20104;-62
2022/09/25 10:30:23;;;;;;;23.02;11.55;;;;;;;18.83;85.63;99703.53;5050698;28;20024;-60
2022/09/25 10:33:15;;;;;;;20.85;12.30;;;;;;;18.92;85.92;99705.56;5059998;28;20083;-61
2022/09/25 10:35:47;;;;;;;21.00;11.65;;;;;;;19.04;86.24;99702.00;5050607;28;20036;-61
2022/09/25 10:38:33;;;;;;;22.83;11.85;;;;;;;18.96;86.44;99704.38;5050159;28;20115;-63
2022/09/25 10:41:06;;;;;;;23.38;12.50;;;;;;;18.95;85.02;99702.63;5048900;28;20039;-61
2022/09/25 10:43:32;;;;;;;24.00;11.65;;;;;;;18.88;84.81;99709.47;5047268;28;20032;-61
2022/09/25 10:46:14;;;;;;;20.10;11.25;;;;;;;18.87;83.85;99708.59;5048599;28;20515;-62
2022/09/25 10:51:26;;;;;;;20.98;11.82;;;;;;;18.81;85.15;99689.31;5069188;28;20203;-61
2022/09/25 10:54:12;;;;;;;20.02;10.73;;;;;;;18.86;85.42;99697.91;5069142;28;20048;-61
2022/09/25 10:56:38;;;;;;;24.10;11.23;;;;;;;18.81;84.79;99694.69;5069406;28;20039;-62
2022/09/25 10:59:19;;;;;;;16.17;9.80;;;;;;;18.80;85.39;99706.41;5069948;28;20526;-61
2022/09/25 11:01:46;;;;;;;21.50;12.02;;;;;;;18.67;86.75;99697.47;5053618;28;20021;-61
2022/09/25 11:04:19;;;;;;;26.92;12.82;;;;;;;18.54;87.29;99704.72;5075441;28;20104;-61
2022/09/25 11:06:53;;;;;;;20.95;12.15;;;;;;;18.52;88.27;99709.38;5079557;28;20027;-61
2022/09/25 11:09:22;;;;;;;24.73;12.93;;;;;;;18.55;88.11;99703.75;5051638;28;20388;-61
2022/09/25 11:11:48;;;;;;;26.58;13.18;;;;;;;18.66;87.90;99701.16;5069663;28;20082;-60
2022/09/25 11:14:31;;;;;;;22.92;13.65;;;;;;;18.63;87.10;99712.16;5069453;28;20029;-61
2022/09/25 11:16:58;;;;;;;24.10;14.57;;;;;;;18.77;87.29;99709.34;5069263;28;20040;-61
2022/09/25 11:19:29;;;;;;;25.35;13.27;;;;;;;18.93;86.84;99718.09;5069356;28;20257;-61
2022/09/25 11:22:03;;;;;;;24.70;12.88;;;;;;;19.03;85.87;99717.28;5069603;28;20037;-60
2022/09/25 11:25:12;;;;;;;24.98;12.23;;;;;;;19.23;83.85;99702.38;5069585;28;20462;-61
2022/09/25 11:27:53;;;;;;;21.98;11.57;;;;;;;19.56;81.56;99708.91;5068926;28;20044;-61
2022/09/25 11:30:21;;;;;;;23.60;12.50;;;;;;;19.79;80.42;99711.69;5069404;28;20036;-62
2022/09/25 11:33:02;;;;;;;21.50;12.10;;;;;;;20.10;78.24;99711.97;5069301;28;20020;-61
2022/09/25 11:35:46;;;;;;;22.05;11.30;;;;;;;20.47;77.40;99704.63;5067896;28;20052;-61
2022/09/25 11:41:49;;;;;;;17.85;10.35;;;;;;;20.82;74.12;99706.28;5069424;28;20047;-61
2022/09/25 11:44:15;;;;;;;17.90;11.00;;;;;;;20.72;73.86;99702.56;5069451;28;20024;-61
2022/09/25 11:47:03;;;;;;;24.98;13.95;;;;;;;20.70;72.99;99692.88;5068858;28;20062;-61
2022/09/25 11:49:36;;;;;;;21.27;11.63;;;;;;;20.69;71.99;99693.88;5069304;28;20028;-61
2022/09/25 11:52:20;;;;;;;19.45;11.32;;;;;;;20.57;72.62;99681.31;5069649;28;20036;-61
2022/09/25 11:55:16;;;;;;;17.20;10.10;;;;;;;20.54;72.58;99685.09;5069046;28;20044;-61